createdAt,value
2023-05-15T00:01:22.547Z,14.85
2023-05-15T00:03:52.287Z,14.82
2023-05-15T00:06:20.260Z,14.72
2023-05-15T00:08:47.634Z,14.77
2023-05-15T00:11:15.372Z,14.85
2023-05-15T00:13:42.687Z,14.89
2023-05-15T00:16:10.345Z,14.74
2023-05-15T00:18:37.781Z,14.78
2023-05-15T00:21:05.496Z,14.74
2023-05-15T00:23:32.737Z,14.72
2023-05-15T00:26:00.388Z,14.70
2023-05-15T00:28:27.742Z,14.69
2023-05-15T00:30:55.511Z,14.65
2023-05-15T00:33:22.933Z,14.71
2023-05-15T00:35:51.310Z,14.63
2023-05-15T00:38:18.604Z,14.59
2023-05-15T00:40:46.853Z,14.61
2023-05-15T00:43:16.201Z,14.54
2023-05-15T00:45:45.547Z,14.43
2023-05-15T00:48:14.017Z,14.52
2023-05-15T00:50:42.606Z,14.28
2023-05-15T00:53:11.239Z,14.54
2023-05-15T00:55:40.739Z,14.60
2023-05-15T00:58:11.009Z,14.54
2023-05-15T01:00:39.363Z,14.60
2023-05-15T01:03:07.063Z,14.38
2023-05-15T01:05:34.925Z,14.46
2023-05-15T01:08:39.975Z,14.53
2023-05-15T01:11:09.580Z,14.46
2023-05-15T01:13:36.948Z,14.43
2023-05-15T01:16:06.451Z,14.55
2023-05-15T01:18:33.956Z,14.52
2023-05-15T01:21:34.726Z,14.56
2023-05-15T01:24:23.428Z,14.49
2023-05-15T01:27:15.453Z,14.42
2023-05-15T01:29:59.891Z,14.47
2023-05-15T01:32:54.319Z,14.47
2023-05-15T01:35:41.512Z,14.51
2023-05-15T01:38:39.331Z,14.36
2023-05-15T01:41:35.171Z,14.39
2023-05-15T01:44:15.113Z,14.34
2023-05-15T01:46:51.293Z,14.30
2023-05-15T01:49:24.877Z,14.26
2023-05-15T01:52:14.824Z,14.26
2023-05-15T01:54:43.803Z,14.18
2023-05-15T01:57:13.755Z,14.27
2023-05-15T01:59:43.209Z,14.33
2023-05-15T02:02:12.152Z,14.10
2023-05-15T02:04:42.758Z,14.26
2023-05-15T02:07:11.151Z,14.25
2023-05-15T02:09:41.237Z,14.11
2023-05-15T02:12:10.755Z,14.22
2023-05-15T02:14:41.387Z,14.23
2023-05-15T02:17:09.244Z,14.29
2023-05-15T02:19:36.919Z,14.26
2023-05-15T02:22:04.408Z,14.25
2023-05-15T02:24:32.060Z,14.32
2023-05-15T02:27:12.199Z,14.22
2023-05-15T02:30:29.595Z,14.24
2023-05-15T02:33:36.072Z,14.16
2023-05-15T02:36:09.654Z,14.37
2023-05-15T02:38:49.107Z,14.42
2023-05-15T02:41:19.486Z,14.35
2023-05-15T02:43:50.936Z,14.44
2023-05-15T02:46:21.908Z,14.52
2023-05-15T02:48:50.766Z,14.53
2023-05-15T02:51:18.954Z,14.48
2023-05-15T02:53:46.431Z,14.48
2023-05-15T02:56:14.125Z,14.42
2023-05-15T02:58:42.507Z,14.54
2023-05-15T03:01:10.329Z,14.48
2023-05-15T03:03:37.680Z,14.50
2023-05-15T03:06:06.910Z,14.52
2023-05-15T03:08:34.254Z,14.51
2023-05-15T03:11:01.870Z,14.42
2023-05-15T03:13:29.227Z,14.40
2023-05-15T03:15:56.994Z,14.44
2023-05-15T03:18:24.662Z,14.41
2023-05-15T03:20:53.716Z,14.36
2023-05-15T03:23:21.084Z,14.42
2023-05-15T03:25:48.750Z,14.40
2023-05-15T03:28:16.145Z,14.36
2023-05-15T03:30:46.913Z,14.38
2023-05-15T03:33:14.260Z,14.41
2023-05-15T03:35:42.102Z,14.45
2023-05-15T03:38:09.568Z,14.37
2023-05-15T03:40:39.672Z,14.32
2023-05-15T03:43:07.232Z,14.38
2023-05-15T03:45:37.725Z,14.31
2023-05-15T03:48:05.808Z,14.43
2023-05-15T03:50:33.762Z,14.33
2023-05-15T03:53:01.156Z,14.35
2023-05-15T03:55:28.854Z,14.30
2023-05-15T03:57:58.069Z,14.27
2023-05-15T04:00:26.268Z,14.29
2023-05-15T04:02:54.268Z,14.33
2023-05-15T04:05:22.722Z,14.39
2023-05-15T04:07:50.513Z,14.46
2023-05-15T04:10:18.131Z,14.44
2023-05-15T04:12:46.401Z,14.41
2023-05-15T04:15:23.393Z,14.42
2023-05-15T04:17:53.887Z,14.52
2023-05-15T04:20:24.493Z,14.49
2023-05-15T04:22:53.016Z,14.55
2023-05-15T04:25:21.320Z,14.65
2023-05-15T04:27:49.439Z,14.61
2023-05-15T04:30:17.581Z,14.67
2023-05-15T04:32:44.976Z,14.76
2023-05-15T04:35:13.775Z,14.71
2023-05-15T04:37:43.273Z,14.82
2023-05-15T04:40:12.323Z,14.77
2023-05-15T04:42:39.860Z,14.83
2023-05-15T04:45:09.377Z,14.94
2023-05-15T04:47:37.298Z,15.03
2023-05-15T04:50:05.615Z,15.08
2023-05-15T04:52:33.419Z,15.08
2023-05-15T04:55:01.137Z,15.10
2023-05-15T04:57:28.782Z,15.28
2023-05-15T04:59:56.520Z,15.36
2023-05-15T05:02:24.613Z,15.39
2023-05-15T05:04:52.792Z,15.35
2023-05-15T05:07:20.132Z,15.34
2023-05-15T05:09:47.708Z,15.39
2023-05-15T05:12:15.071Z,15.40
2023-05-15T05:14:44.710Z,15.44
2023-05-15T05:17:12.245Z,15.50
2023-05-15T05:19:39.860Z,15.53
2023-05-15T05:22:07.848Z,15.53
2023-05-15T05:24:37.585Z,15.42
2023-05-15T05:27:05.836Z,15.59
2023-05-15T05:29:34.044Z,15.69
2023-05-15T05:32:01.474Z,15.75
2023-05-15T05:34:29.436Z,15.69
2023-05-15T05:36:56.862Z,15.74
2023-05-15T05:39:26.668Z,15.69
2023-05-15T05:41:53.960Z,15.80
2023-05-15T05:44:21.640Z,15.72
2023-05-15T05:46:49.752Z,15.83
2023-05-15T05:49:17.448Z,15.95
2023-05-15T05:51:47.159Z,15.97
2023-05-15T05:54:15.208Z,15.97
2023-05-15T05:56:43.124Z,15.82
2023-05-15T05:59:10.990Z,15.81
2023-05-15T06:01:38.505Z,15.84
2023-05-15T06:04:06.433Z,15.97
2023-05-15T06:06:34.686Z,16.00
2023-05-15T06:09:02.511Z,15.96
2023-05-15T06:11:29.816Z,15.86
2023-05-15T06:13:57.392Z,15.70
2023-05-15T06:16:24.766Z,15.84
2023-05-15T06:18:52.368Z,15.80
2023-05-15T06:21:19.754Z,15.87
2023-05-15T06:23:53.340Z,15.89
2023-05-15T06:26:22.054Z,16.00
2023-05-15T06:28:50.577Z,16.14
2023-05-15T06:31:18.036Z,16.38
2023-05-15T06:33:45.642Z,16.63
2023-05-15T06:36:12.975Z,16.88
2023-05-15T06:38:40.546Z,16.96
2023-05-15T06:41:07.920Z,17.07
2023-05-15T06:43:38.546Z,17.10
2023-05-15T06:46:06.176Z,16.98
2023-05-15T06:48:34.227Z,16.97
2023-05-15T06:51:01.777Z,16.97
2023-05-15T06:53:30.335Z,16.86
2023-05-15T06:55:57.876Z,16.62
2023-05-15T06:58:27.878Z,16.78
2023-05-15T07:00:57.673Z,16.86
2023-05-15T07:03:26.725Z,16.97
2023-05-15T07:05:54.307Z,17.03
2023-05-15T07:08:21.964Z,17.11
2023-05-15T07:10:49.590Z,17.12
2023-05-15T07:13:18.437Z,17.09
2023-05-15T07:15:46.081Z,17.21
2023-05-15T07:18:13.759Z,17.17
2023-05-15T07:20:41.170Z,17.05
2023-05-15T07:23:08.802Z,17.20
2023-05-15T07:25:36.528Z,17.41
2023-05-15T07:28:04.469Z,17.15
2023-05-15T07:30:31.817Z,17.50
2023-05-15T07:32:59.613Z,17.60
2023-05-15T07:35:27.318Z,17.57
2023-05-15T07:37:55.226Z,17.62
2023-05-15T07:40:24.324Z,17.62
2023-05-15T07:42:51.984Z,17.47
2023-05-15T07:45:19.466Z,17.44
2023-05-15T07:47:49.164Z,17.40
2023-05-15T07:50:19.794Z,17.37
2023-05-15T07:52:47.489Z,17.53
2023-05-15T07:55:14.886Z,17.62
2023-05-15T07:57:42.630Z,17.53
2023-05-15T08:00:13.723Z,17.67
2023-05-15T08:02:41.743Z,17.68
2023-05-15T08:05:09.774Z,17.65
2023-05-15T08:07:37.536Z,17.73
2023-05-15T08:10:07.477Z,17.68
2023-05-15T08:12:35.256Z,17.72
2023-05-15T08:15:02.748Z,17.79
2023-05-15T08:17:30.789Z,17.74
2023-05-15T08:19:58.174Z,17.77
2023-05-15T08:22:25.957Z,17.77
2023-05-15T08:24:53.340Z,17.89
2023-05-15T08:27:21.035Z,17.91
2023-05-15T08:29:48.448Z,17.56
2023-05-15T08:32:18.277Z,17.66
2023-05-15T08:34:45.832Z,17.91
2023-05-15T08:37:13.422Z,18.11
2023-05-15T08:39:40.714Z,18.35
2023-05-15T08:42:11.386Z,18.40
2023-05-15T08:44:39.567Z,18.51
2023-05-15T08:47:07.969Z,18.65
2023-05-15T08:50:06.943Z,18.85
2023-05-15T08:52:35.059Z,19.09
2023-05-15T08:55:03.962Z,17.91
2023-05-15T08:57:33.995Z,18.30
2023-05-15T09:00:06.520Z,18.03
2023-05-15T09:02:37.604Z,18.27
2023-05-15T09:05:07.421Z,18.40
2023-05-15T09:07:36.454Z,18.37
2023-05-15T09:10:04.796Z,18.50
2023-05-15T09:12:34.931Z,18.04
2023-05-15T09:15:22.577Z,17.31
2023-05-15T09:17:54.550Z,17.42
2023-05-15T09:20:34.000Z,17.42
2023-05-15T09:23:04.725Z,17.35
2023-05-15T09:25:44.948Z,17.23
2023-05-15T09:28:31.912Z,17.39
2023-05-15T09:31:03.001Z,17.48
2023-05-15T09:33:39.944Z,17.10
2023-05-15T09:36:09.495Z,17.07
2023-05-15T09:38:48.465Z,17.19
2023-05-15T09:41:25.049Z,16.74
2023-05-15T09:43:56.277Z,16.06
2023-05-15T09:46:24.260Z,16.71
2023-05-15T09:48:55.889Z,16.52
2023-05-15T09:51:23.461Z,16.46
2023-05-15T09:53:53.746Z,16.39
2023-05-15T09:56:22.130Z,16.65
2023-05-15T09:58:59.128Z,16.64
2023-05-15T10:01:27.648Z,17.14
2023-05-15T10:04:05.697Z,17.08
2023-05-15T10:06:43.338Z,17.19
2023-05-15T10:09:12.963Z,17.09
2023-05-15T10:11:43.740Z,18.47
2023-05-15T10:14:14.281Z,17.67
2023-05-15T10:16:42.130Z,17.79
2023-05-15T10:19:14.100Z,17.69
2023-05-15T10:21:42.411Z,17.79
2023-05-15T10:24:11.759Z,17.51
2023-05-15T10:26:41.771Z,17.36
2023-05-15T10:29:13.146Z,17.29
2023-05-15T10:31:42.139Z,16.96
2023-05-15T10:34:12.122Z,16.90
2023-05-15T10:36:43.106Z,16.51
2023-05-15T10:39:11.904Z,16.71
2023-05-15T10:41:40.742Z,16.85
2023-05-15T10:44:08.999Z,16.89
2023-05-15T10:46:37.724Z,16.21
2023-05-15T10:49:05.663Z,16.38
2023-05-15T10:51:33.636Z,16.55
2023-05-15T10:54:05.287Z,16.69
2023-05-15T10:56:39.206Z,17.29
2023-05-15T10:59:10.656Z,17.10
2023-05-15T11:01:40.148Z,17.78
2023-05-15T11:04:16.191Z,17.57
2023-05-15T11:06:49.057Z,18.80
2023-05-15T11:09:23.299Z,18.57
2023-05-15T11:12:09.543Z,18.83
2023-05-15T11:14:43.515Z,18.48
2023-05-15T11:17:17.680Z,18.88
2023-05-15T11:19:51.374Z,19.36
2023-05-15T11:22:23.085Z,19.31
2023-05-15T11:25:09.343Z,18.26
2023-05-15T11:27:46.620Z,19.08
2023-05-15T11:30:22.968Z,19.18
2023-05-15T11:32:52.022Z,19.87
2023-05-15T11:35:43.596Z,19.75
2023-05-15T11:38:11.037Z,21.21
2023-05-15T11:40:47.681Z,20.79
2023-05-15T11:43:28.356Z,20.67
2023-05-15T11:46:04.433Z,20.35
2023-05-15T11:48:41.781Z,19.92
2023-05-15T11:51:25.377Z,19.85
2023-05-15T11:53:56.087Z,19.60
2023-05-15T11:56:30.936Z,19.04
2023-05-15T11:59:01.313Z,18.94
2023-05-15T12:01:44.036Z,18.64
2023-05-15T12:04:19.330Z,18.66
2023-05-15T12:06:49.602Z,19.13
2023-05-15T12:09:19.581Z,20.00
2023-05-15T12:11:53.780Z,19.09
2023-05-15T12:14:31.487Z,18.94
2023-05-15T12:17:04.460Z,20.37
2023-05-15T12:19:34.715Z,20.07
2023-05-15T12:22:06.467Z,19.63
2023-05-15T12:24:39.784Z,19.07
2023-05-15T12:27:09.817Z,21.10
2023-05-15T12:29:41.809Z,21.19
2023-05-15T12:32:10.349Z,21.35
2023-05-15T12:34:38.132Z,19.70
2023-05-15T12:37:05.988Z,20.19
2023-05-15T12:39:33.436Z,20.64
2023-05-15T12:42:01.232Z,21.12
2023-05-15T12:44:29.445Z,20.85
2023-05-15T12:46:57.405Z,21.06
2023-05-15T12:49:24.918Z,20.62
2023-05-15T12:51:52.440Z,20.83
2023-05-15T12:54:20.950Z,20.35
2023-05-15T12:56:49.346Z,20.39
2023-05-15T12:59:16.871Z,20.47
2023-05-15T13:01:45.555Z,20.45
2023-05-15T13:04:12.908Z,20.08
2023-05-15T13:06:46.849Z,20.52
2023-05-15T13:09:22.053Z,19.81
2023-05-15T13:11:50.041Z,19.75
2023-05-15T13:14:22.735Z,19.74
2023-05-15T13:16:50.349Z,19.81
2023-05-15T13:19:17.895Z,19.63
2023-05-15T13:21:46.066Z,19.42
2023-05-15T13:24:13.433Z,18.60
2023-05-15T13:26:41.301Z,19.50
2023-05-15T13:29:08.744Z,19.71
2023-05-15T13:31:36.395Z,19.50
2023-05-15T13:34:03.789Z,20.02
2023-05-15T13:36:31.507Z,20.38
2023-05-15T13:38:58.942Z,19.91
2023-05-15T13:41:26.663Z,20.17
2023-05-15T13:43:54.025Z,20.58
2023-05-15T13:46:21.644Z,20.33
2023-05-15T13:48:49.082Z,20.60
2023-05-15T13:51:16.931Z,20.94
2023-05-15T13:53:44.297Z,21.02
2023-05-15T13:56:12.796Z,20.51
2023-05-15T13:58:41.288Z,20.38
2023-05-15T14:01:08.912Z,20.50
2023-05-15T14:03:36.529Z,20.22
2023-05-15T14:06:04.686Z,19.90
2023-05-15T14:08:31.962Z,20.14
2023-05-15T14:10:59.554Z,19.91
2023-05-15T14:13:26.871Z,19.88
2023-05-15T14:15:55.082Z,19.72
2023-05-15T14:18:22.393Z,19.44
2023-05-15T14:20:50.068Z,19.59
2023-05-15T14:23:17.382Z,18.79
2023-05-15T14:25:45.034Z,18.92
2023-05-15T14:28:13.101Z,19.33
2023-05-15T14:30:40.848Z,19.39
2023-05-15T14:33:08.245Z,20.09
2023-05-15T14:35:36.721Z,19.75
2023-05-15T14:38:04.714Z,20.45
2023-05-15T14:40:32.361Z,20.04
2023-05-15T14:42:59.716Z,20.37
2023-05-15T14:45:27.634Z,19.78
2023-05-15T14:47:55.090Z,20.00
2023-05-15T14:50:22.878Z,19.88
2023-05-15T14:52:50.325Z,20.17
2023-05-15T14:55:23.360Z,19.95
2023-05-15T14:57:50.887Z,19.96
2023-05-15T15:00:18.737Z,20.30
2023-05-15T15:02:46.525Z,19.58
2023-05-15T15:05:14.426Z,19.04
2023-05-15T15:08:11.054Z,19.15
2023-05-15T15:10:40.350Z,19.27
2023-05-15T15:13:10.164Z,19.01
2023-05-15T15:15:37.845Z,19.65
2023-05-15T15:18:06.043Z,19.64
2023-05-15T15:20:33.944Z,19.88
2023-05-15T15:23:05.116Z,19.93
2023-05-15T15:25:33.764Z,20.09
2023-05-15T15:28:02.567Z,20.34
2023-05-15T15:30:31.131Z,20.41
2023-05-15T15:32:59.250Z,20.53
2023-05-15T15:35:26.909Z,20.26
2023-05-15T15:37:55.376Z,19.95
2023-05-15T15:40:23.958Z,19.75
2023-05-15T15:42:51.961Z,19.70
2023-05-15T15:45:19.348Z,19.60
2023-05-15T15:47:47.078Z,19.24
2023-05-15T15:50:14.490Z,19.29
2023-05-15T15:52:42.253Z,19.28
2023-05-15T15:55:10.274Z,18.83
2023-05-15T15:57:38.101Z,19.11
2023-05-15T16:00:08.331Z,18.67
2023-05-15T16:02:36.767Z,18.34
2023-05-15T16:05:04.351Z,18.22
2023-05-15T16:07:32.051Z,18.42
2023-05-15T16:10:11.953Z,18.27
2023-05-15T16:12:42.606Z,18.14
2023-05-15T16:15:21.653Z,18.15
2023-05-15T16:17:54.305Z,18.38
2023-05-15T16:20:23.438Z,18.20
2023-05-15T16:22:56.136Z,18.32
2023-05-15T16:25:23.609Z,18.30
2023-05-15T16:27:51.279Z,18.00
2023-05-15T16:30:18.636Z,17.69
2023-05-15T16:32:46.664Z,17.80
2023-05-15T16:35:14.134Z,17.57
2023-05-15T16:37:41.822Z,17.97
2023-05-15T16:40:09.945Z,17.84
2023-05-15T16:42:38.229Z,17.73
2023-05-15T16:45:07.061Z,17.97
2023-05-15T16:47:37.233Z,17.52
2023-05-15T16:50:08.363Z,17.46
2023-05-15T16:52:36.920Z,17.61
2023-05-15T16:55:04.780Z,17.33
2023-05-15T16:57:32.476Z,17.37
2023-05-15T16:59:59.813Z,17.43
2023-05-15T17:02:27.517Z,17.20
2023-05-15T17:04:55.255Z,17.30
2023-05-15T17:07:22.816Z,17.31
2023-05-15T17:09:50.108Z,16.97
2023-05-15T17:12:17.770Z,16.85
2023-05-15T17:14:44.995Z,16.97
2023-05-15T17:17:12.605Z,17.00
2023-05-15T17:19:39.819Z,16.76
2023-05-15T17:22:07.376Z,16.55
2023-05-15T17:24:49.365Z,16.65
2023-05-15T17:27:19.839Z,16.70
2023-05-15T17:29:48.326Z,16.56
2023-05-15T17:32:16.945Z,16.55
2023-05-15T17:34:45.163Z,16.28
2023-05-15T17:37:14.115Z,16.28
2023-05-15T17:39:41.661Z,16.42
2023-05-15T17:42:09.514Z,15.96
2023-05-15T17:44:36.800Z,16.30
2023-05-15T17:47:04.754Z,16.31
2023-05-15T17:49:34.273Z,16.38
2023-05-15T17:52:02.058Z,16.29
2023-05-15T17:54:29.486Z,15.86
2023-05-15T17:56:57.132Z,16.04
2023-05-15T17:59:24.677Z,16.33
2023-05-15T18:01:53.051Z,16.25
2023-05-15T18:04:20.689Z,16.19
2023-05-15T18:06:48.690Z,16.12
2023-05-15T18:09:16.091Z,16.06
2023-05-15T18:11:43.682Z,16.17
2023-05-15T18:14:11.119Z,16.16
2023-05-15T18:16:39.100Z,16.00
2023-05-15T18:19:07.255Z,15.96
2023-05-15T18:21:37.673Z,15.94
2023-05-15T18:24:05.747Z,16.03
2023-05-15T18:26:33.369Z,16.07
2023-05-15T18:29:00.604Z,15.93
2023-05-15T18:31:28.291Z,15.88
2023-05-15T18:33:55.730Z,15.66
2023-05-15T18:36:23.884Z,15.73
2023-05-15T18:38:51.431Z,15.78
2023-05-15T18:41:19.111Z,15.84
2023-05-15T18:43:46.566Z,15.86
2023-05-15T18:46:14.232Z,15.57
2023-05-15T18:48:41.636Z,15.80
2023-05-15T18:51:10.977Z,15.90
2023-05-15T18:53:38.408Z,15.67
2023-05-15T18:56:06.241Z,15.85
2023-05-15T18:58:33.593Z,15.98
2023-05-15T19:01:01.295Z,15.89
2023-05-15T19:03:28.779Z,15.91
2023-05-15T19:05:57.491Z,15.94
2023-05-15T19:08:25.020Z,15.97
2023-05-15T19:10:53.048Z,15.73
2023-05-15T19:13:20.445Z,15.91
2023-05-15T19:15:52.720Z,16.01
2023-05-15T19:18:20.474Z,15.95
2023-05-15T19:20:52.306Z,16.05
2023-05-15T19:23:20.982Z,15.95
2023-05-15T19:25:48.800Z,15.84
2023-05-15T19:28:16.466Z,15.75
2023-05-15T19:30:44.641Z,15.34
2023-05-15T19:33:13.079Z,15.56
2023-05-15T19:35:40.952Z,15.56
2023-05-15T19:38:08.424Z,15.54
2023-05-15T19:40:36.721Z,15.45
2023-05-15T19:43:04.522Z,15.43
2023-05-15T19:45:33.779Z,15.41
2023-05-15T19:48:01.432Z,15.44
2023-05-15T19:50:29.585Z,15.17
2023-05-15T19:52:57.860Z,15.23
2023-05-15T19:55:25.817Z,15.23
2023-05-15T19:57:56.447Z,14.88
2023-05-15T20:00:24.907Z,15.19
2023-05-15T20:02:53.356Z,15.12
2023-05-15T20:05:21.324Z,15.14
2023-05-15T20:07:48.854Z,15.10
2023-05-15T20:10:18.607Z,15.08
2023-05-15T20:12:46.869Z,14.96
2023-05-15T20:15:15.883Z,15.16
2023-05-15T20:17:43.672Z,15.09
2023-05-15T20:20:12.289Z,14.96
2023-05-15T20:22:42.487Z,14.52
2023-05-15T20:25:11.017Z,14.75
2023-05-15T20:27:38.737Z,14.77
2023-05-15T20:30:07.794Z,14.61
2023-05-15T20:32:36.424Z,14.56
2023-05-15T20:35:04.658Z,14.58
2023-05-15T20:37:32.119Z,14.66
2023-05-15T20:40:00.390Z,14.66
2023-05-15T20:42:28.964Z,14.58
2023-05-15T20:44:56.646Z,14.61
2023-05-15T20:47:24.225Z,14.43
2023-05-15T20:49:52.020Z,14.36
2023-05-15T20:52:20.949Z,14.38
2023-05-15T20:54:48.964Z,14.53
2023-05-15T20:57:16.442Z,14.38
2023-05-15T20:59:44.278Z,14.27
2023-05-15T21:02:11.695Z,14.09
2023-05-15T21:04:39.885Z,14.24
2023-05-15T21:07:07.247Z,14.37
2023-05-15T21:09:35.884Z,14.09
2023-05-15T21:12:04.018Z,14.04
2023-05-15T21:14:32.021Z,14.09
2023-05-15T21:16:59.384Z,14.26
2023-05-15T21:19:27.345Z,14.12
2023-05-15T21:21:54.961Z,14.26
2023-05-15T21:24:23.099Z,14.24
2023-05-15T21:26:50.657Z,14.15
2023-05-15T21:29:18.327Z,14.33
2023-05-15T21:31:45.777Z,13.90
2023-05-15T21:34:13.594Z,13.91
2023-05-15T21:36:41.186Z,14.08
2023-05-15T21:39:09.583Z,13.87
2023-05-15T21:41:37.022Z,14.02
2023-05-15T21:44:04.751Z,13.72
2023-05-15T21:46:32.083Z,13.93
2023-05-15T21:49:01.875Z,13.81
2023-05-15T21:51:29.344Z,13.73
2023-05-15T21:53:57.229Z,13.76
2023-05-15T21:56:24.584Z,13.57
2023-05-15T21:58:53.678Z,13.78
2023-05-15T22:01:21.108Z,13.41
2023-05-15T22:03:49.164Z,13.24
2023-05-15T22:06:16.749Z,13.40
2023-05-15T22:08:44.952Z,13.31
2023-05-15T22:11:12.551Z,13.49
2023-05-15T22:13:40.157Z,13.40
2023-05-15T22:16:07.717Z,13.44
2023-05-15T22:18:35.792Z,13.51
2023-05-15T22:21:03.244Z,13.47
2023-05-15T22:23:31.603Z,13.53
2023-05-15T22:26:00.034Z,13.35
2023-05-15T22:28:27.896Z,13.38
2023-05-15T22:30:55.549Z,13.32
2023-05-15T22:33:24.584Z,13.57
2023-05-15T22:35:52.909Z,13.25
2023-05-15T22:38:21.353Z,13.04
2023-05-15T22:40:52.837Z,13.11
2023-05-15T22:43:22.140Z,13.13
2023-05-15T22:45:49.646Z,13.27
2023-05-15T22:48:17.670Z,13.21
2023-05-15T22:50:45.189Z,13.30
2023-05-15T22:53:12.844Z,13.42
2023-05-15T22:55:40.409Z,13.23
2023-05-15T22:58:08.109Z,13.29
2023-05-15T23:00:35.668Z,13.26
2023-05-15T23:03:03.562Z,12.99
2023-05-15T23:05:31.358Z,13.23
2023-05-15T23:07:59.022Z,12.96
2023-05-15T23:10:26.890Z,13.26
2023-05-15T23:12:55.054Z,13.22
2023-05-15T23:15:22.382Z,13.10
2023-05-15T23:17:50.319Z,13.29
2023-05-15T23:20:18.212Z,13.27
2023-05-15T23:22:45.950Z,13.25
2023-05-15T23:25:13.382Z,13.17
2023-05-15T23:27:41.248Z,13.33
2023-05-15T23:30:09.967Z,13.08
2023-05-15T23:32:37.935Z,13.01
2023-05-15T23:35:05.921Z,12.95
2023-05-15T23:37:33.563Z,12.97
2023-05-15T23:40:00.973Z,12.86
2023-05-15T23:42:30.137Z,13.12
2023-05-15T23:44:57.505Z,12.95
2023-05-15T23:47:25.250Z,12.98
2023-05-15T23:49:52.661Z,12.83
2023-05-15T23:52:20.338Z,12.86
2023-05-15T23:54:47.645Z,12.88
2023-05-15T23:57:15.663Z,12.83
2023-05-15T23:59:43.000Z,12.74
